Time;durP1;ratioP1;P1;durP2;ratioP2;P2;SDS_P1;SDS_P2;PMS_P1;PMS_P2;Temp;Humidity;BMP_temperature;BMP_pressure;BME280_temperature;BME280_humidity;BME280_pressure;Samples;Min_cycle;Max_cycle;Signal;HPM_P1;HPM_P2
2022/10/05 00:00:52;;;;;;;15.88;8.05;;;10.20;99.90;;;;;;5003035;28;20030;-79
2022/10/05 00:03:19;;;;;;;14.90;8.52;;;10.20;99.90;;;;;;5000628;28;20049;-80
2022/10/05 00:05:45;;;;;;;16.05;7.85;;;10.20;99.90;;;;;;4997393;28;20471;-81
2022/10/05 00:08:11;;;;;;;16.83;8.23;;;10.10;99.90;;;;;;4994695;28;20038;-80
2022/10/05 00:10:40;;;;;;;21.58;9.13;;;10.20;99.90;;;;;;4996516;28;20106;-79
2022/10/05 00:13:21;;;;;;;14.52;7.53;;;10.10;99.90;;;;;;4995274;28;20043;-79
2022/10/05 00:15:48;;;;;;;18.63;8.93;;;10.10;99.90;;;;;;4994727;28;20065;-77
2022/10/05 00:18:17;;;;;;;14.70;8.20;;;10.10;99.90;;;;;;4996228;28;20034;-79
2022/10/05 00:20:45;;;;;;;18.33;9.00;;;10.00;99.90;;;;;;4997288;28;20045;-81
2022/10/05 00:23:17;;;;;;;17.70;8.30;;;10.00;99.90;;;;;;4997191;28;20049;-79
2022/10/05 00:25:43;;;;;;;17.30;8.70;;;10.00;99.90;;;;;;4998788;28;20026;-80
2022/10/05 00:28:26;;;;;;;14.68;8.20;;;10.00;99.90;;;;;;4997681;28;20470;-81
2022/10/05 00:30:57;;;;;;;15.80;9.27;;;10.00;99.90;;;;;;4996532;28;20042;-80
2022/10/05 00:33:23;;;;;;;15.63;9.15;;;10.00;99.90;;;;;;5002933;28;20050;-79
2022/10/05 00:35:49;;;;;;;15.85;8.55;;;9.90;99.90;;;;;;5007569;28;20080;-79
2022/10/05 00:38:15;;;;;;;14.70;8.88;;;9.90;99.90;;;;;;4989268;28;20034;-79
2022/10/05 00:41:00;;;;;;;14.88;9.15;;;9.90;99.90;;;;;;5005469;28;20409;-79
2022/10/05 00:43:36;;;;;;;13.45;9.00;;;9.80;99.90;;;;;;4986535;28;20129;-78
2022/10/05 00:46:30;;;;;;;17.08;8.57;;;9.80;99.90;;;;;;5003174;28;20034;-80
2022/10/05 00:49:20;;;;;;;17.65;8.80;;;9.80;99.90;;;;;;5001873;28;20474;-79
2022/10/05 00:52:20;;;;;;;18.75;9.57;;;9.80;99.90;;;;;;4982432;28;20351;-80
2022/10/05 00:55:14;;;;;;;18.23;10.52;;;9.80;99.90;;;;;;4973250;28;20518;-80
2022/10/05 00:58:04;;;;;;;19.42;10.52;;;9.80;99.90;;;;;;4982159;28;20038;-81
2022/10/05 01:00:34;;;;;;;21.23;10.40;;;9.80;99.90;;;;;;4992723;28;20034;-82
2022/10/05 01:03:31;;;;;;;19.10;9.98;;;9.70;99.90;;;;;;4999106;28;20053;-81
2022/10/05 01:05:57;;;;;;;23.50;10.88;;;9.70;99.90;;;;;;4999572;28;20159;-80
2022/10/05 01:08:46;;;;;;;20.98;10.20;;;9.60;99.90;;;;;;5000960;28;20050;-80
2022/10/05 01:11:15;;;;;;;20.02;10.45;;;9.60;99.90;;;;;;5003580;28;20030;-80
2022/10/05 01:14:00;;;;;;;19.95;10.30;;;9.60;99.90;;;;;;5005706;28;20043;-79
2022/10/05 01:16:39;;;;;;;26.70;11.32;;;9.50;99.90;;;;;;5009709;28;20094;-79
2022/10/05 01:19:28;;;;;;;18.60;10.77;;;9.50;99.90;;;;;;4996358;28;20041;-80
2022/10/05 01:22:08;;;;;;;24.55;10.55;;;9.50;99.90;;;;;;5017041;28;20035;-80
2022/10/05 01:24:52;;;;;;;17.83;10.48;;;9.50;99.90;;;;;;4994801;28;20262;-79
2022/10/05 01:27:27;;;;;;;18.13;10.13;;;9.40;99.90;;;;;;5001371;28;20034;-78
2022/10/05 01:30:03;;;;;;;16.50;9.77;;;9.40;99.90;;;;;;4998818;28;20030;-80
2022/10/05 01:33:19;;;;;;;21.15;10.07;;;9.40;99.90;;;;;;4997315;28;20034;-78
2022/10/05 01:35:50;;;;;;;24.88;11.05;;;9.40;99.90;;;;;;4963927;28;20032;-80
2022/10/05 01:38:49;;;;;;;23.67;10.15;;;9.30;99.90;;;;;;4979253;28;20061;-81
2022/10/05 01:41:45;;;;;;;16.73;9.52;;;9.30;99.90;;;;;;5006500;28;20371;-78
2022/10/05 01:44:16;;;;;;;17.38;9.23;;;9.20;99.90;;;;;;5006046;28;20085;-79
2022/10/05 01:47:22;;;;;;;16.15;8.85;;;9.20;99.90;;;;;;4981967;28;20034;-80
2022/10/05 01:50:14;;;;;;;24.20;9.40;;;9.20;99.90;;;;;;4989437;28;20061;-81
2022/10/05 01:52:50;;;;;;;20.13;10.00;;;9.10;99.90;;;;;;4998409;28;20688;-81
2022/10/05 01:55:41;;;;;;;22.55;9.43;;;9.10;99.90;;;;;;5001521;28;20022;-80
2022/10/05 01:58:13;;;;;;;17.83;9.63;;;9.00;99.90;;;;;;4998941;28;20562;-80
2022/10/05 02:01:05;;;;;;;24.42;10.48;;;9.00;99.90;;;;;;4998327;28;20455;-80
2022/10/05 02:03:48;;;;;;;20.15;9.23;;;8.90;99.90;;;;;;4996141;28;20474;-78
2022/10/05 02:06:24;;;;;;;19.98;9.20;;;8.90;99.90;;;;;;4997329;28;20089;-79
2022/10/05 02:09:01;;;;;;;21.35;10.10;;;8.80;99.90;;;;;;5000672;28;20057;-78
2022/10/05 02:11:28;;;;;;;17.20;9.07;;;8.90;99.90;;;;;;4986705;28;20026;-79
2022/10/05 02:14:07;;;;;;;24.27;9.65;;;8.80;99.90;;;;;;5000144;28;20038;-79
2022/10/05 02:16:39;;;;;;;17.35;9.70;;;8.80;99.90;;;;;;4985434;28;20037;-79
2022/10/05 02:19:26;;;;;;;16.58;8.95;;;8.80;99.90;;;;;;4994070;28;20035;-78
2022/10/05 02:22:05;;;;;;;19.65;9.93;;;8.80;99.90;;;;;;4995760;28;20058;-80
2022/10/05 02:24:39;;;;;;;21.13;10.77;;;8.80;99.90;;;;;;4994559;28;20046;-80
2022/10/05 02:27:08;;;;;;;20.98;9.25;;;8.70;99.90;;;;;;4980185;28;20462;-79
2022/10/05 02:29:38;;;;;;;18.63;9.43;;;8.70;99.90;;;;;;5007911;28;20037;-78
2022/10/05 02:32:14;;;;;;;19.70;10.07;;;8.70;99.90;;;;;;5004158;28;20053;-78
2022/10/05 02:34:42;;;;;;;18.98;9.55;;;8.70;99.90;;;;;;5005039;28;20054;-80
2022/10/05 02:37:33;;;;;;;25.77;9.45;;;8.70;99.90;;;;;;5007284;28;20026;-80
2022/10/05 02:40:33;;;;;;;19.45;8.95;;;8.60;99.90;;;;;;4988333;28;20488;-81
2022/10/05 02:43:26;;;;;;;19.02;10.05;;;8.60;99.90;;;;;;4996579;28;20023;-80
2022/10/05 02:46:02;;;;;;;16.13;9.25;;;8.60;99.90;;;;;;5012109;28;20030;-81
2022/10/05 02:48:52;;;;;;;18.05;10.02;;;8.60;99.90;;;;;;4996653;28;20030;-79
2022/10/05 02:51:21;;;;;;;18.30;9.35;;;8.60;99.90;;;;;;4996770;28;20466;-80
2022/10/05 02:53:52;;;;;;;17.67;9.98;;;8.60;99.90;;;;;;4978925;28;20041;-80
2022/10/05 02:56:36;;;;;;;23.40;9.57;;;8.50;99.90;;;;;;5000943;28;20030;-79
2022/10/05 02:59:18;;;;;;;21.30;10.43;;;8.50;99.90;;;;;;5002901;28;20039;-80
2022/10/05 03:01:52;;;;;;;23.20;10.10;;;8.50;99.90;;;;;;4985368;28;20031;-79
2022/10/05 03:04:33;;;;;;;21.30;9.80;;;8.50;99.90;;;;;;4997625;28;20033;-79
2022/10/05 03:07:36;;;;;;;21.70;9.75;;;8.50;99.90;;;;;;4976109;28;20467;-80
2022/10/05 03:10:37;;;;;;;22.40;10.00;;;8.50;99.90;;;;;;4991174;28;20045;-78
2022/10/05 03:13:25;;;;;;;13.43;8.57;;;8.50;99.90;;;;;;4998640;28;20117;-79
2022/10/05 03:16:10;;;;;;;20.80;9.27;;;8.50;99.90;;;;;;4994901;28;20034;-79
2022/10/05 03:18:41;;;;;;;15.77;8.82;;;8.50;99.90;;;;;;4996193;28;20057;-78
2022/10/05 03:21:26;;;;;;;20.00;8.80;;;8.50;99.90;;;;;;5118412;23;20057;-85
2022/10/05 03:24:05;;;;;;;16.33;8.57;;;8.50;99.90;;;;;;5050969;28;20034;-86
2022/10/05 03:26:44;;;;;;;18.52;9.05;;;8.50;99.90;;;;;;5034066;28;20037;-86
2022/10/05 03:29:13;;;;;;;16.48;8.43;;;8.50;99.90;;;;;;5029258;28;20104;-85
2022/10/05 03:31:55;;;;;;;16.50;8.93;;;8.50;99.90;;;;;;5033619;28;20028;-87
2022/10/05 03:34:49;;;;;;;15.93;9.05;;;8.40;99.90;;;;;;5016951;28;20034;-86
2022/10/05 03:37:40;;;;;;;16.35;9.43;;;8.40;99.90;;;;;;5036735;28;20022;-87
2022/10/05 03:40:26;;;;;;;16.05;8.35;;;8.40;99.90;;;;;;5036329;28;20101;-87
2022/10/05 03:43:27;;;;;;;20.90;7.97;;;8.40;99.90;;;;;;5024200;28;20057;-85
2022/10/05 03:46:25;;;;;;;17.35;7.65;;;8.30;99.90;;;;;;5037238;28;20018;-87
2022/10/05 03:49:06;;;;;;;19.70;8.10;;;8.30;99.90;;;;;;5036194;28;20109;-87
2022/10/05 03:51:41;;;;;;;15.70;7.72;;;8.30;99.90;;;;;;4999187;28;20022;-87
2022/10/05 03:54:07;;;;;;;;;;;8.40;99.90;;;;;;5033729;28;20033;-83
2022/10/05 03:56:46;;;;;;;18.77;6.95;;;8.30;99.90;;;;;;5033860;28;19902;-87
2022/10/05 03:59:26;;;;;;;22.08;8.68;;;8.30;99.90;;;;;;5018410;28;20030;-86
2022/10/05 04:02:00;;;;;;;19.08;8.45;;;8.30;99.90;;;;;;5034712;28;20033;-81
2022/10/05 04:04:35;;;;;;;18.45;9.02;;;8.30;99.90;;;;;;5034839;28;20022;-82
2022/10/05 04:07:01;;;;;;;20.27;7.30;;;8.30;99.90;;;;;;5035984;28;20033;-84
2022/10/05 04:09:40;;;;;;;14.90;7.82;;;8.30;99.90;;;;;;5034208;28;20022;-84
2022/10/05 04:12:09;;;;;;;15.02;6.82;;;8.30;99.90;;;;;;5032363;28;20022;-86
2022/10/05 04:14:40;;;;;;;11.73;6.38;;;8.30;99.90;;;;;;5031195;28;20022;-86
2022/10/05 04:17:14;;;;;;;15.43;6.53;;;8.20;99.90;;;;;;5035616;28;20034;-86
2022/10/05 04:19:52;;;;;;;13.10;7.05;;;8.20;99.90;;;;;;5032974;28;20081;-86
2022/10/05 04:22:28;;;;;;;14.18;7.50;;;8.20;99.90;;;;;;5033466;28;20022;-87
2022/10/05 04:25:01;;;;;;;13.13;6.78;;;8.10;99.90;;;;;;5034926;28;20037;-87
2022/10/05 04:27:40;;;;;;;13.88;6.88;;;8.20;99.90;;;;;;5034149;28;20101;-87
2022/10/05 04:30:21;;;;;;;11.60;6.22;;;8.20;99.90;;;;;;5038110;28;20036;-87
2022/10/05 04:32:59;;;;;;;19.42;7.28;;;8.10;99.90;;;;;;5033572;28;20025;-87
2022/10/05 04:35:45;;;;;;;15.23;7.35;;;8.10;99.90;;;;;;5035215;28;20085;-87
2022/10/05 04:38:33;;;;;;;14.82;6.97;;;8.10;99.90;;;;;;5036004;28;20075;-86
2022/10/05 04:41:05;;;;;;;19.45;7.40;;;8.10;99.90;;;;;;5026349;28;20026;-86
2022/10/05 04:44:02;;;;;;;18.50;7.15;;;8.10;99.90;;;;;;5027801;28;20048;-88
2022/10/05 04:46:56;;;;;;;16.00;6.75;;;8.10;99.90;;;;;;5008237;28;20165;-87
2022/10/05 04:49:28;;;;;;;20.92;7.97;;;8.10;99.90;;;;;;5027934;28;20034;-89
2022/10/05 04:51:58;;;;;;;15.55;6.85;;;8.10;99.90;;;;;;5028437;28;20490;-89
2022/10/05 04:54:45;;;;;;;17.40;7.30;;;8.10;99.90;;;;;;5031322;28;20089;-90
2022/10/05 04:57:24;;;;;;;18.33;7.10;;;8.10;99.90;;;;;;5037050;28;20041;-90
2022/10/05 05:00:09;;;;;;;16.80;7.05;;;8.10;99.90;;;;;;5033963;28;20038;-87
2022/10/05 05:03:10;;;;;;;15.20;8.35;;;8.10;99.90;;;;;;5033155;28;20057;-87
2022/10/05 05:05:39;;;;;;;20.58;8.18;;;8.10;99.90;;;;;;5032756;28;20263;-86
2022/10/05 05:08:21;;;;;;;13.15;6.80;;;8.10;99.90;;;;;;5034290;28;20009;-87
2022/10/05 05:11:06;;;;;;;13.52;7.50;;;8.10;99.90;;;;;;5037064;28;20045;-89
2022/10/05 05:13:39;;;;;;;16.13;6.72;;;8.10;99.90;;;;;;5037776;28;20085;-88
2022/10/05 05:16:34;;;;;;;15.35;6.70;;;8.10;99.90;;;;;;5038013;28;20045;-88
2022/10/05 05:19:22;;;;;;;15.70;6.57;;;8.20;99.90;;;;;;5022830;28;20030;-88
2022/10/05 05:21:48;;;;;;;15.88;6.30;;;8.20;99.90;;;;;;5022591;28;20065;-87
2022/10/05 05:24:37;;;;;;;21.40;7.75;;;8.20;99.90;;;;;;5021437;28;20030;-86
2022/10/05 05:27:17;;;;;;;12.63;7.20;;;8.20;99.90;;;;;;5033450;28;20053;-88
2022/10/05 05:30:25;;;;;;;12.70;6.97;;;8.20;99.90;;;;;;5031223;28;20029;-88
2022/10/05 05:33:09;;;;;;;17.42;6.63;;;8.20;99.90;;;;;;5016096;28;20130;-88
2022/10/05 05:35:44;;;;;;;17.30;7.10;;;8.30;99.90;;;;;;5029746;28;20025;-86
2022/10/05 05:38:09;;;;;;;;;;;8.30;99.90;;;;;;5029539;28;20038;-88
2022/10/05 05:40:49;;;;;;;17.65;6.78;;;8.30;99.90;;;;;;5029801;28;19904;-85
2022/10/05 05:43:23;;;;;;;13.25;6.55;;;8.40;99.90;;;;;;5031316;28;20029;-86
2022/10/05 05:46:05;;;;;;;18.92;6.75;;;8.40;99.90;;;;;;5031200;28;20026;-84
2022/10/05 05:48:41;;;;;;;17.58;6.90;;;8.40;99.90;;;;;;5036364;28;20022;-85
2022/10/05 05:51:10;;;;;;;12.48;6.40;;;8.50;99.90;;;;;;5037982;28;20018;-83
2022/10/05 05:53:46;;;;;;;12.23;6.47;;;8.60;99.90;;;;;;5035255;28;20133;-86
2022/10/05 05:56:48;;;;;;;15.55;6.90;;;8.60;99.90;;;;;;5037316;28;20014;-84
2022/10/05 05:59:24;;;;;;;14.40;7.22;;;8.70;99.90;;;;;;4969920;28;20067;-85
2022/10/05 06:01:56;;;;;;;19.92;6.07;;;8.80;99.90;;;;;;5037921;28;20026;-85
2022/10/05 06:04:34;;;;;;;15.93;5.75;;;8.80;99.90;;;;;;5038427;28;20022;-83
2022/10/05 06:07:02;;;;;;;17.90;6.25;;;8.90;99.90;;;;;;5038502;28;20064;-85
2022/10/05 06:09:36;;;;;;;19.05;6.28;;;8.90;99.90;;;;;;5029217;28;20038;-84
2022/10/05 06:12:32;;;;;;;23.17;5.65;;;9.00;99.90;;;;;;5019902;28;20078;-85
2022/10/05 06:15:13;;;;;;;16.73;6.15;;;9.10;99.90;;;;;;5023912;28;20038;-85
2022/10/05 06:17:51;;;;;;;13.23;5.90;;;9.10;99.90;;;;;;5006896;28;20054;-84
2022/10/05 06:20:29;;;;;;;15.63;6.03;;;9.10;99.90;;;;;;5023790;28;20030;-86
2022/10/05 06:23:01;;;;;;;17.55;6.20;;;9.20;99.90;;;;;;5024578;28;20041;-87
2022/10/05 06:26:16;;;;;;;23.10;6.43;;;9.30;99.90;;;;;;5018123;28;20040;-87
2022/10/05 06:28:50;;;;;;;10.27;5.90;;;9.40;99.90;;;;;;4978968;28;20047;-87
2022/10/05 06:31:28;;;;;;;14.30;5.60;;;9.60;99.90;;;;;;5017287;28;20029;-83
2022/10/05 06:34:54;;;;;;;14.45;5.72;;;9.70;99.90;;;;;;4998198;28;20053;-86
2022/10/05 06:37:41;;;;;;;17.30;5.78;;;9.80;99.90;;;;;;4911625;29;20024;-86
2022/10/05 06:40:08;;;;;;;15.55;6.05;;;9.90;99.90;;;;;;4998357;28;20054;-85
2022/10/05 06:43:07;;;;;;;15.95;6.50;;;10.00;99.90;;;;;;5005705;28;20089;-86
2022/10/05 06:45:54;;;;;;;20.02;7.97;;;10.10;99.90;;;;;;5007119;28;20666;-87
2022/10/05 06:48:39;;;;;;;11.40;5.80;;;10.10;99.90;;;;;;5005399;28;20031;-87
2022/10/05 06:51:48;;;;;;;11.18;5.75;;;10.10;99.90;;;;;;5006301;28;20034;-87
2022/10/05 06:54:48;;;;;;;14.25;5.82;;;10.20;99.90;;;;;;5015090;28;20048;-85
2022/10/05 06:57:36;;;;;;;12.02;6.50;;;10.30;99.90;;;;;;5014827;28;20141;-85
2022/10/05 07:00:15;;;;;;;12.82;6.47;;;10.40;99.90;;;;;;5006448;28;20034;-86
2022/10/05 07:02:53;;;;;;;14.52;7.28;;;10.40;99.90;;;;;;5007408;28;20026;-87
2022/10/05 07:05:31;;;;;;;13.82;6.40;;;10.40;99.90;;;;;;4992116;28;20053;-86
2022/10/05 07:08:11;;;;;;;10.93;6.35;;;10.50;99.90;;;;;;5008326;28;20027;-87
2022/10/05 07:11:06;;;;;;;16.83;6.55;;;10.60;99.90;;;;;;5007025;28;20035;-85
2022/10/05 07:14:02;;;;;;;14.05;6.32;;;10.70;99.90;;;;;;5006829;28;20037;-87
2022/10/05 07:16:28;;;;;;;14.75;6.20;;;10.80;99.90;;;;;;5022508;28;20037;-86
2022/10/05 07:19:09;;;;;;;12.35;6.78;;;10.90;99.90;;;;;;5021540;28;20077;-86
2022/10/05 07:21:57;;;;;;;13.63;6.32;;;10.90;99.90;;;;;;5024078;28;20041;-86
2022/10/05 07:24:32;;;;;;;11.05;6.38;;;11.00;99.90;;;;;;5007505;28;20054;-86
2022/10/05 07:27:09;;;;;;;14.30;7.38;;;11.00;99.90;;;;;;5009636;28;20033;-87
2022/10/05 07:29:44;;;;;;;10.95;7.03;;;11.10;99.90;;;;;;5047230;28;20229;-85
2022/10/05 07:32:28;;;;;;;10.88;6.93;;;11.10;99.90;;;;;;5035824;28;20030;-85
2022/10/05 07:35:08;;;;;;;15.52;7.20;;;11.20;99.90;;;;;;5036362;28;20036;-85
2022/10/05 07:37:54;;;;;;;15.40;6.97;;;11.40;99.90;;;;;;5035139;28;20030;-84
2022/10/05 07:40:38;;;;;;;10.82;5.50;;;11.50;99.90;;;;;;5034249;28;20045;-86
2022/10/05 07:43:21;;;;;;;11.52;5.80;;;11.50;99.90;;;;;;5034162;28;20053;-87
2022/10/05 07:45:57;;;;;;;9.00;5.50;;;11.60;99.90;;;;;;5035662;28;20010;-86
2022/10/05 07:48:37;;;;;;;11.90;5.70;;;11.80;99.90;;;;;;5034536;28;20041;-87
2022/10/05 07:51:25;;;;;;;18.67;5.95;;;11.90;99.90;;;;;;5034685;28;20045;-84
2022/10/05 07:54:05;;;;;;;9.55;6.38;;;12.20;99.90;;;;;;5028833;28;20037;-86
2022/10/05 07:56:43;;;;;;;12.52;7.18;;;12.30;99.90;;;;;;5029224;28;20104;-88
2022/10/05 07:59:39;;;;;;;12.95;6.20;;;12.50;99.90;;;;;;5030387;28;20026;-87
2022/10/05 08:02:24;;;;;;;16.77;8.68;;;12.60;99.90;;;;;;5031150;28;20026;-87
2022/10/05 08:05:10;;;;;;;17.40;7.90;;;12.80;99.90;;;;;;5034402;28;20030;-85
2022/10/05 08:07:37;;;;;;;16.88;8.00;;;12.90;99.90;;;;;;5034168;28;20052;-85
2022/10/05 08:10:25;;;;;;;19.13;8.63;;;12.80;99.90;;;;;;5033359;28;20018;-86
2022/10/05 08:13:18;;;;;;;18.13;8.45;;;12.90;99.90;;;;;;5035556;28;20025;-84
2022/10/05 08:15:50;;;;;;;15.35;8.23;;;13.00;99.90;;;;;;5036081;28;20094;-84
2022/10/05 08:18:34;;;;;;;15.63;8.95;;;13.00;99.90;;;;;;5031163;28;20046;-84
2022/10/05 08:21:00;;;;;;;19.08;9.73;;;13.10;99.90;;;;;;5027261;28;20034;-88
2022/10/05 08:23:37;;;;;;;16.20;8.98;;;13.20;99.90;;;;;;5025513;28;20486;-86
2022/10/05 08:26:09;;;;;;;21.40;8.75;;;13.30;99.90;;;;;;5026441;28;20084;-85
2022/10/05 08:29:04;;;;;;;27.80;9.20;;;13.30;99.90;;;;;;5029786;28;20030;-86
2022/10/05 08:31:36;;;;;;;20.02;8.68;;;13.40;99.90;;;;;;5023911;28;20416;-89
2022/10/05 08:34:24;;;;;;;19.90;8.30;;;13.50;99.90;;;;;;5030421;28;20065;-84
2022/10/05 08:37:02;;;;;;;15.23;8.38;;;13.60;99.90;;;;;;5035149;28;20038;-85
2022/10/05 08:39:39;;;;;;;17.20;8.80;;;13.80;99.90;;;;;;5034886;28;20106;-85
2022/10/05 08:42:21;;;;;;;16.50;8.55;;;14.20;99.90;;;;;;5033715;28;20033;-85
2022/10/05 08:44:46;;;;;;;20.70;9.10;;;14.70;99.90;;;;;;5033366;28;20040;-86
2022/10/05 08:47:39;;;;;;;18.80;9.35;;;15.30;99.90;;;;;;5032419;28;20054;-88
2022/10/05 08:50:32;;;;;;;18.33;8.98;;;15.80;99.90;;;;;;5026638;28;20030;-87
2022/10/05 08:53:28;;;;;;;15.80;8.25;;;16.70;99.90;;;;;;5027321;28;20057;-87
2022/10/05 08:56:15;;;;;;;16.08;7.55;;;18.10;99.90;;;;;;5030214;28;20022;-86
2022/10/05 08:59:03;;;;;;;12.85;7.57;;;19.00;99.90;;;;;;5032907;28;20081;-85
2022/10/05 09:02:00;;;;;;;16.88;7.22;;;19.90;99.90;;;;;;5033541;28;20655;-89
2022/10/05 09:05:04;;;;;;;17.67;6.25;;;20.30;99.90;;;;;;5025389;28;20030;-85
2022/10/05 09:07:59;;;;;;;17.02;6.57;;;20.20;99.90;;;;;;5027459;28;20049;-84
2022/10/05 09:11:00;;;;;;;16.52;6.00;;;20.50;99.90;;;;;;5019848;28;20049;-82
2022/10/05 09:14:02;;;;;;;15.60;5.43;;;20.40;99.90;;;;;;5012555;28;20069;-84
2022/10/05 09:17:02;;;;;;;15.68;5.13;;;20.60;99.90;;;;;;5017376;28;20036;-84
2022/10/05 09:19:31;;;;;;;8.23;4.95;;;20.80;99.90;;;;;;5018422;28;20041;-85
2022/10/05 09:22:37;;;;;;;7.97;5.03;;;21.20;99.90;;;;;;5020300;28;20074;-90
2022/10/05 09:25:18;;;;;;;12.27;4.80;;;21.70;98.80;;;;;;5019828;28;20073;-83
2022/10/05 09:28:16;;;;;;;7.22;4.18;;;22.20;97.80;;;;;;5019727;28;20026;-85
2022/10/05 09:31:06;;;;;;;7.05;3.35;;;22.90;96.30;;;;;;5019845;28;20026;-85
2022/10/05 09:33:59;;;;;;;5.72;3.85;;;23.00;95.10;;;;;;5019360;28;20030;-86
2022/10/05 09:36:34;;;;;;;10.20;4.90;;;22.70;95.70;;;;;;5018310;28;20042;-86
2022/10/05 09:39:18;;;;;;;9.15;3.90;;;22.50;95.30;;;;;;5018039;28;20100;-84
2022/10/05 09:42:12;;;;;;;7.35;4.25;;;22.30;95.50;;;;;;5019281;28;20126;-87
2022/10/05 09:44:56;;;;;;;8.02;3.97;;;22.30;95.60;;;;;;5034252;28;20042;-83
2022/10/05 09:47:54;;;;;;;7.43;3.60;;;22.80;95.20;;;;;;5018900;28;20023;-85
2022/10/05 09:50:44;;;;;;;14.68;4.18;;;23.70;94.10;;;;;;5018621;28;20062;-83
2022/10/05 09:53:22;;;;;;;6.05;3.53;;;24.50;92.50;;;;;;5020131;28;20030;-83
2022/10/05 09:56:08;;;;;;;;;;;23.60;93.20;;;;;;5027347;28;20018;-86
2022/10/05 09:59:08;;;;;;;6.07;3.92;;;23.30;93.70;;;;;;5027972;28;19917;-87
2022/10/05 10:02:15;;;;;;;8.02;4.30;;;23.10;93.50;;;;;;5017863;28;20034;-87
2022/10/05 10:05:18;;;;;;;6.63;2.97;;;22.80;93.70;;;;;;5017077;28;20026;-85
2022/10/05 10:07:56;;;;;;;8.45;3.75;;;23.00;93.40;;;;;;5015977;28;20034;-86
2022/10/05 10:10:39;;;;;;;11.25;4.03;;;23.40;93.40;;;;;;5017025;28;20030;-84
2022/10/05 10:13:44;;;;;;;7.82;3.17;;;23.90;92.70;;;;;;5013337;28;20124;-87
2022/10/05 10:16:36;;;;;;;6.45;3.30;;;23.70;92.50;;;;;;5012473;28;20037;-87
2022/10/05 10:19:40;;;;;;;5.78;3.42;;;22.60;93.40;;;;;;5034700;28;20034;-87
2022/10/05 10:22:27;;;;;;;6.63;3.53;;;22.00;94.20;;;;;;5030850;28;20052;-86
2022/10/05 10:24:56;;;;;;;11.07;3.58;;;21.50;94.90;;;;;;5030498;28;20053;-85
2022/10/05 10:27:39;;;;;;;7.88;3.70;;;21.00;95.70;;;;;;5029199;28;20022;-86
2022/10/05 10:31:04;;;;;;;11.13;3.90;;;20.80;96.00;;;;;;5028253;28;20482;-86
2022/10/05 10:34:02;;;;;;;10.07;3.88;;;20.40;96.80;;;;;;4986865;28;20154;-88
2022/10/05 10:36:59;;;;;;;4.82;2.80;;;20.00;97.60;;;;;;4994018;28;20084;-87
2022/10/05 10:39:55;;;;;;;6.40;3.22;;;20.50;97.80;;;;;;5031907;28;20041;-90
2022/10/05 10:42:59;;;;;;;12.63;3.10;;;22.10;96.00;;;;;;5014228;28;20029;-87
2022/10/05 10:45:53;;;;;;;7.93;2.90;;;23.90;94.00;;;;;;5050001;22;20492;-81
2022/10/05 10:48:18;;;;;;;5.85;3.78;;;25.30;92.50;;;;;;5027863;28;20358;-80
2022/10/05 10:50:57;;;;;;;5.38;3.47;;;25.50;91.80;;;;;;5027397;28;20030;-80
2022/10/05 10:53:42;;;;;;;7.93;3.38;;;25.60;91.00;;;;;;5024668;28;20041;-82
2022/10/05 10:56:14;;;;;;;6.18;3.30;;;24.80;91.50;;;;;;5025334;28;20100;-79
2022/10/05 10:59:29;;;;;;;6.18;3.50;;;24.70;91.80;;;;;;5024353;28;20041;-80
2022/10/05 11:02:08;;;;;;;5.30;3.03;;;25.40;91.60;;;;;;5017367;28;20042;-83
2022/10/05 11:04:46;;;;;;;10.57;3.83;;;26.70;90.40;;;;;;5019068;28;20164;-83
2022/10/05 11:07:42;;;;;;;13.30;3.05;;;27.10;88.70;;;;;;5018923;28;20115;-81
2022/10/05 11:10:11;;;;;;;7.22;3.13;;;26.50;88.10;;;;;;5018586;28;20439;-80
2022/10/05 11:13:15;;;;;;;8.07;3.22;;;26.60;88.60;;;;;;5007971;28;20030;-81
2022/10/05 11:16:08;;;;;;;7.15;3.20;;;26.90;88.50;;;;;;5009523;28;20042;-83
2022/10/05 11:18:53;;;;;;;14.05;2.92;;;27.20;87.80;;;;;;5026149;28;20082;-81
2022/10/05 11:21:35;;;;;;;7.07;2.92;;;27.00;87.60;;;;;;5029597;28;20033;-80
2022/10/05 11:24:19;;;;;;;8.65;3.42;;;26.80;88.00;;;;;;5028595;28;20064;-79
2022/10/05 11:26:57;;;;;;;9.05;3.55;;;26.40;88.00;;;;;;5028302;28;20056;-81
2022/10/05 11:29:46;;;;;;;8.25;3.17;;;26.60;88.30;;;;;;5026039;28;20034;-81
2022/10/05 11:32:30;;;;;;;8.88;3.40;;;26.70;87.80;;;;;;5028311;28;20042;-79
2022/10/05 11:35:37;;;;;;;10.38;3.28;;;26.70;87.70;;;;;;5018587;28;20034;-81
2022/10/05 11:38:09;;;;;;;8.23;2.80;;;26.70;87.80;;;;;;5012729;28;20034;-81
2022/10/05 11:40:38;;;;;;;6.60;3.20;;;26.90;87.60;;;;;;5023733;28;20033;-84
2022/10/05 11:43:25;;;;;;;6.72;3.25;;;26.60;87.70;;;;;;5027346;28;20034;-81
2022/10/05 11:46:25;;;;;;;13.82;3.25;;;26.60;88.00;;;;;;5025824;28;20030;-82
2022/10/05 11:49:00;;;;;;;8.20;2.60;;;26.50;87.80;;;;;;5022374;28;20033;-80
2022/10/05 11:51:34;;;;;;;7.65;3.05;;;26.70;87.40;;;;;;5025679;28;20032;-81
2022/10/05 11:54:18;;;;;;;;;;;26.80;87.10;;;;;;5023224;28;20433;-82
2022/10/05 11:56:58;;;;;;;9.65;3.10;;;27.20;86.40;;;;;;5017382;28;20346;-80
2022/10/05 11:59:44;;;;;;;7.65;3.30;;;27.00;86.20;;;;;;5017773;28;20021;-80
2022/10/05 12:02:52;;;;;;;4.32;3.08;;;26.60;86.70;;;;;;5016390;28;20036;-81
2022/10/05 12:05:21;;;;;;;6.47;3.40;;;26.20;87.80;;;;;;5005446;28;20021;-81
2022/10/05 12:08:08;;;;;;;8.60;3.13;;;26.60;87.60;;;;;;5005429;28;20033;-80
2022/10/05 12:11:15;;;;;;;8.85;3.50;;;27.20;86.90;;;;;;4995832;28;20492;-80
2022/10/05 12:14:00;;;;;;;10.88;3.50;;;27.40;86.20;;;;;;4978366;28;20038;-80
2022/10/05 12:16:44;;;;;;;10.15;3.20;;;27.50;85.90;;;;;;4996634;28;20491;-82
2022/10/05 12:19:09;;;;;;;9.95;3.58;;;27.60;85.50;;;;;;4995574;28;20042;-81
2022/10/05 12:22:02;;;;;;;7.68;3.40;;;27.40;85.50;;;;;;4995792;28;20062;-80
2022/10/05 12:24:34;;;;;;;8.40;3.10;;;26.70;86.20;;;;;;4996359;28;20033;-79
2022/10/05 12:27:15;;;;;;;10.82;3.22;;;26.00;87.70;;;;;;4998236;28;20039;-80
2022/10/05 12:30:06;;;;;;;10.43;3.75;;;25.30;89.50;;;;;;4999970;28;20030;-81
2022/10/05 12:33:06;;;;;;;6.45;3.13;;;24.50;90.60;;;;;;4997557;28;20027;-80
2022/10/05 12:35:49;;;;;;;5.85;3.03;;;23.80;91.10;;;;;;4999981;28;20049;-83
2022/10/05 12:38:27;;;;;;;7.30;3.28;;;23.40;92.10;;;;;;4995935;28;20092;-80
2022/10/05 12:41:14;;;;;;;11.57;3.00;;;23.30;92.30;;;;;;4995509;28;20483;-82
2022/10/05 12:44:01;;;;;;;12.95;3.55;;;23.20;92.60;;;;;;4994709;28;20054;-78
2022/10/05 12:46:46;;;;;;;7.22;3.28;;;23.20;92.80;;;;;;4995825;28;20057;-81
2022/10/05 12:50:02;;;;;;;8.85;3.33;;;23.40;92.80;;;;;;4996761;28;20030;-81
2022/10/05 12:52:36;;;;;;;4.95;2.90;;;23.20;93.00;;;;;;5003635;28;20379;-81
2022/10/05 12:55:12;;;;;;;10.40;3.42;;;22.90;93.30;;;;;;5008253;28;20479;-80
2022/10/05 12:58:16;;;;;;;5.90;3.00;;;22.80;93.70;;;;;;5003988;28;20030;-82
2022/10/05 13:01:11;;;;;;;6.38;3.13;;;22.70;94.00;;;;;;5013124;28;20057;-82
2022/10/05 13:03:44;;;;;;;6.50;2.97;;;22.80;94.20;;;;;;5042360;28;20096;-81
2022/10/05 13:06:33;;;;;;;7.90;3.22;;;22.80;94.20;;;;;;5001977;28;20336;-80
2022/10/05 13:09:10;;;;;;;3.35;2.80;;;22.70;94.60;;;;;;5008801;28;20137;-81
2022/10/05 13:11:52;;;;;;;5.97;3.17;;;22.90;94.60;;;;;;5020722;28;20029;-83
2022/10/05 13:14:54;;;;;;;11.98;3.40;;;22.90;94.60;;;;;;5013332;28;20098;-81
2022/10/05 13:17:37;;;;;;;6.68;3.10;;;22.80;94.80;;;;;;5012119;28;20018;-83
2022/10/05 13:20:27;;;;;;;6.00;3.08;;;22.60;95.30;;;;;;5021157;28;20116;-83
2022/10/05 13:23:10;;;;;;;7.43;3.10;;;22.40;95.50;;;;;;5021927;28;20025;-84
2022/10/05 13:25:47;;;;;;;11.55;3.05;;;22.20;95.90;;;;;;5024070;28;20079;-80
2022/10/05 13:28:15;;;;;;;8.57;3.40;;;22.10;96.10;;;;;;5026621;28;20026;-82
2022/10/05 13:31:04;;;;;;;7.53;3.13;;;22.20;96.40;;;;;;5008538;28;20026;-83
2022/10/05 13:33:57;;;;;;;10.23;3.40;;;22.30;96.50;;;;;;5026414;28;20030;-82
2022/10/05 13:36:44;;;;;;;5.45;3.05;;;22.40;96.40;;;;;;5028290;28;20082;-81
2022/10/05 13:39:20;;;;;;;7.13;3.25;;;22.20;96.60;;;;;;5028309;28;20030;-80
2022/10/05 13:41:55;;;;;;;16.70;6.05;;;22.20;96.80;;;;;;5027030;28;20030;-82
2022/10/05 13:44:33;;;;;;;9.85;4.95;;;22.20;96.90;;;;;;5023878;28;20109;-84
2022/10/05 13:47:10;;;;;;;9.82;3.72;;;22.10;96.90;;;;;;5020672;28;20418;-82
2022/10/05 13:49:42;;;;;;;9.32;3.50;;;22.00;97.30;;;;;;5018854;28;20570;-81
2022/10/05 13:52:18;;;;;;;14.75;3.20;;;21.90;97.70;;;;;;5025266;28;20073;-80
2022/10/05 13:54:58;;;;;;;9.07;3.88;;;21.80;97.80;;;;;;5010839;28;20114;-80
2022/10/05 13:57:24;;;;;;;4.68;3.10;;;21.60;98.10;;;;;;5025324;28;20037;-81
2022/10/05 13:59:57;;;;;;;11.05;3.53;;;21.60;98.50;;;;;;5021892;28;20030;-80
2022/10/05 14:02:30;;;;;;;10.73;3.10;;;21.40;99.10;;;;;;5019596;28;20026;-81
2022/10/05 14:05:03;;;;;;;8.35;3.30;;;21.30;99.30;;;;;;5026341;28;20060;-81